This is the latest recevied weather packets stored in our database for station/object OE6PLD-13. If no packets are shown the sender has not sent any weather packets the latest 1 day(s).
| Time | Temp. | Humidity | Pressure | Rain* | Wind** | Luminosity | Snow |
|---|---|---|---|---|---|---|---|
| 1778093343 | 17.22° C | 70% | 1012.7 hPa | 0.76 mm | - | 0 W/m² | - |
| 1778092793 | 17.22° C | 70% | 1012.4 hPa | 0.76 mm | - | 0 W/m² | - |
| 1778092426 | 17.22° C | 70% | 1012.6 hPa | 0.76 mm | - | 0 W/m² | - |
| 1778091876 | 17.22° C | 70% | 1012.5 hPa | 0.76 mm | - | 0 W/m² | - |
| 1778091326 | 17.78° C | 69% | 1012.2 hPa | 0.76 mm | - | 0 W/m² | - |
| 1778090776 | 17.78° C | 67% | 1012.1 hPa | 0.76 mm | - | 2 W/m² | - |
| 1778090409 | 18.33° C | 66% | 1012.4 hPa | 0.76 mm | - | 4 W/m² | - |
| 1778090226 | 18.33° C | 66% | 1012.3 hPa | 0.76 mm | - | 4 W/m² | - |
| 1778089859 | 18.33° C | 66% | 1012.2 hPa | 0.76 mm | - | 7 W/m² | - |
| 1778089309 | 18.89° C | 65% | 1012.3 hPa | 0.76 mm | - | 11 W/m² | - |
| 1778088942 | 18.89° C | 65% | 1012.2 hPa | 0.76 mm | - | 15 W/m² | - |
| 1778088392 | 19.44° C | 63% | 1012.1 hPa | 0.76 mm | - | 21 W/m² | - |
| 1778087842 | 20° C | 61% | 1012.1 hPa | 0.76 mm | - | 36 W/m² | - |
| 1778087292 | 20° C | 62% | 1012.2 hPa | 0.76 mm | - | 46 W/m² | - |
| 1778086742 | 20° C | 61% | 1012.1 hPa | 0.76 mm | - | 39 W/m² | - |
| 1778086192 | 21.11° C | 58% | 1012.2 hPa | 0.76 mm | - | 50 W/m² | - |
| 1778085642 | 21.11° C | 57% | 1012.3 hPa | 0.76 mm | - | 57 W/m² | - |
| 1778085092 | 20° C | 59% | 1012.1 hPa | 0.76 mm | - | 45 W/m² | - |
| 1778084542 | 20° C | 59% | 1012.4 hPa | 0.76 mm | - | 71 W/m² | - |
| 1778083992 | 21.67° C | 56% | 1012.3 hPa | 0.76 mm | - | 64 W/m² | - |
| 1778083075 | 21.11° C | 56% | 1012.5 hPa | 0.76 mm | - | 88 W/m² | - |
| 1778082525 | 21.67° C | 55% | 1012.3 hPa | 0.76 mm | - | 231 W/m² | - |
| 1778081975 | 21.67° C | 56% | 1012.6 hPa | 0.76 mm | - | 163 W/m² | - |
| 1778081425 | 22.22° C | 54% | 1012.5 hPa | 0.76 mm | - | 159 W/m² | - |
| 1778081058 | 22.78° C | 53% | 1012.6 hPa | 0.76 mm | - | 281 W/m² | - |
* Rain latest hour (hover to see other rain measurements)
** Current wind speed in m/s (hover to see current wind gust speed)